This is the latest recevied weather packets stored in our database for station/object K4ZZR. If no packets are shown the sender has not sent any weather packets the latest 10 day(s).
| Time | Temp. | Humidity | Pressure | Rain* | Wind** | Luminosity | Snow |
|---|---|---|---|---|---|---|---|
| 1777469864 | 26.11° C | 76% | 1017 hPa | 0 mm | - | 532 W/m² | - |
| 1777469559 | 25° C | 78% | 1017.1 hPa | 0 mm | - | 521 W/m² | - |
| 1777469254 | 26.11° C | 78% | 1017 hPa | 0 mm | - | 490 W/m² | - |
| 1777468949 | 26.11° C | 80% | 1017.2 hPa | 0 mm | - | 236 W/m² | - |
| 1777468645 | 25.56° C | 79% | 1016.8 hPa | 0 mm | - | 437 W/m² | - |
| 1777468038 | 26.11° C | 78% | 1017 hPa | 0 mm | - | 389 W/m² | - |
| 1777467430 | 25.56° C | 80% | 1016.6 hPa | 0 mm | - | 344 W/m² | - |
| 1777466823 | 26.11° C | 80% | 1016.4 hPa | 0 mm | - | 123 W/m² | - |
| 1777466216 | 25.56° C | 80% | 1016.6 hPa | 0 mm | - | 227 W/m² | - |
| 1777465913 | 25.56° C | 82% | 1016.2 hPa | 0 mm | - | 207 W/m² | - |
| 1777465609 | 25.56° C | 83% | 1016.4 hPa | 0 mm | - | 191 W/m² | - |
| 1777464998 | 25° C | 86% | 1016.4 hPa | 0 mm | - | 157 W/m² | - |
| 1777464694 | 25° C | 85% | 1015.9 hPa | 0 mm | - | 141 W/m² | - |
| 1777464391 | 25° C | 84% | 1016.3 hPa | 0 mm | - | 129 W/m² | - |
| 1777462564 | 22.22° C | 93% | 1016.2 hPa | 0 mm | - | 72 W/m² | - |
| 1777461955 | 21.11° C | 95% | 1016.1 hPa | 0 mm | - | 54 W/m² | - |
| 1777461653 | 21.11° C | 96% | 1015.9 hPa | 0 mm | - | 45 W/m² | - |
| 1777461044 | 20.56° C | 97% | 1015.9 hPa | 0 mm | - | 30 W/m² | - |
| 1777459829 | 20.56° C | 97% | 1015.5 hPa | 0 mm | - | 7 W/m² | - |
| 1777458921 | 20° C | 97% | 1015.3 hPa | 0 mm | - | 1 W/m² | - |
| 1777458617 | 20° C | 97% | 1015.3 hPa | 0 mm | - | 0 W/m² | - |
| 1777458009 | 20.56° C | 97% | 1015.1 hPa | 0 mm | - | 0 W/m² | - |
| 1777457706 | 20.56° C | 97% | 1015.4 hPa | 0 mm | - | 0 W/m² | - |
| 1777457405 | 20.56° C | 97% | 1015.4 hPa | 0 mm | - | 0 W/m² | - |
| 1777457101 | 20.56° C | 97% | 1015.2 hPa | 0 mm | - | 0 W/m² | - |
* Rain latest hour (hover to see other rain measurements)
** Current wind speed in m/s (hover to see current wind gust speed)